Time;durP1;ratioP1;P1;durP2;ratioP2;P2;SDS_P1;SDS_P2;PMS_P1;PMS_P2;Temp;Humidity;BMP_temperature;BMP_pressure;BME280_temperature;BME280_humidity;BME280_pressure;Samples;Min_cycle;Max_cycle;Signal;HPM_P1;HPM_P2
2022/10/31 00:00:17;;;;;;;27.23;12.43;;;;;;;14.38;71.01;100863.47;10391653;28;20137;-77
2022/10/31 00:05:20;;;;;;;28.33;13.85;;;;;;;14.28;71.57;100867.09;10401016;28;20534;-78
2022/10/31 00:10:23;;;;;;;27.00;13.90;;;;;;;14.10;72.86;100875.88;10396140;28;20045;-78
2022/10/31 00:15:27;;;;;;;21.80;14.13;;;;;;;14.03;72.94;100879.22;10397536;28;20065;-78
2022/10/31 00:20:31;;;;;;;32.70;15.68;;;;;;;13.92;73.74;100886.44;10402962;28;20368;-77
2022/10/31 00:26:00;;;;;;;24.88;14.38;;;;;;;13.86;74.32;100895.06;10395934;28;20052;-77
2022/10/31 00:31:07;;;;;;;29.33;14.75;;;;;;;13.86;74.84;100888.81;10401878;28;20048;-78
2022/10/31 00:36:14;;;;;;;33.47;15.82;;;;;;;13.86;74.34;100896.91;10380292;28;20149;-78
2022/10/31 00:41:18;;;;;;;29.77;15.90;;;;;;;13.85;74.79;100895.19;10392838;28;20068;-78
2022/10/31 00:46:24;;;;;;;25.17;15.63;;;;;;;13.75;75.09;100897.00;10396104;28;20081;-78
2022/10/31 00:51:27;;;;;;;31.33;17.38;;;;;;;13.69;75.38;100899.22;10393897;28;20484;-78
2022/10/31 00:56:30;;;;;;;36.78;17.65;;;;;;;13.61;76.19;100901.75;10401143;28;20484;-78
2022/10/31 01:01:36;;;;;;;29.25;17.08;;;;;;;13.59;76.61;100892.91;10389169;28;20579;-78
2022/10/31 01:06:40;;;;;;;35.83;18.85;;;;;;;13.53;76.83;100904.25;10405591;28;20080;-79
2022/10/31 01:11:43;;;;;;;29.42;17.92;;;;;;;13.42;77.56;100912.38;10393714;28;20049;-77
2022/10/31 01:16:47;;;;;;;35.55;18.67;;;;;;;13.46;77.98;100913.81;10470979;23;20173;-77
2022/10/31 01:21:50;;;;;;;33.70;19.80;;;;;;;13.48;77.68;100919.97;10473173;28;20041;-77
2022/10/31 01:26:52;;;;;;;38.63;19.65;;;;;;;13.27;78.19;100930.69;10470642;28;20118;-77
2022/10/31 01:31:56;;;;;;;35.72;18.63;;;;;;;13.10;78.90;100934.78;10469038;28;20490;-77
2022/10/31 01:36:59;;;;;;;38.58;18.63;;;;;;;13.09;78.80;100922.31;10478847;28;20098;-77
2022/10/31 01:42:02;;;;;;;39.30;19.30;;;;;;;13.08;78.73;100919.72;10466625;28;20715;-77
2022/10/31 01:47:13;;;;;;;46.83;19.25;;;;;;;13.03;78.68;100928.22;10469647;28;20582;-77
2022/10/31 01:52:22;;;;;;;37.33;20.02;;;;;;;13.02;78.64;100921.09;10475174;28;20166;-77
2022/10/31 01:57:26;;;;;;;27.65;18.23;;;;;;;13.02;78.73;100916.53;10473102;28;20435;-77
2022/10/31 02:02:31;;;;;;;39.72;18.85;;;;;;;13.05;78.23;100915.44;10478767;28;20116;-77
2022/10/31 02:07:39;;;;;;;39.72;19.27;;;;;;;13.03;78.29;100906.63;10481055;28;20120;-77
2022/10/31 02:12:42;;;;;;;32.40;18.80;;;;;;;13.00;78.24;100912.25;10465403;28;20717;-77
2022/10/31 02:17:47;;;;;;;33.47;17.90;;;;;;;12.93;77.42;100909.22;10463151;28;20102;-77
2022/10/31 02:23:06;;;;;;;27.38;16.33;;;;;;;12.88;77.57;100919.53;10471435;28;20040;-77
2022/10/31 02:28:31;;;;;;;28.95;18.05;;;;;;;12.82;76.66;100917.34;10478220;28;20045;-77
2022/10/31 02:33:42;;;;;;;32.15;17.65;;;;;;;12.76;76.80;100923.25;10481464;28;20417;-77
2022/10/31 02:38:53;;;;;;;37.10;18.75;;;;;;;12.74;76.69;100923.34;10463994;28;20041;-77
2022/10/31 02:44:21;;;;;;;34.17;19.60;;;;;;;12.74;76.98;100925.19;10474298;28;20132;-77
2022/10/31 02:49:28;;;;;;;;;;;;;;;12.67;76.67;100911.38;10454329;28;20527;-77
2022/10/31 02:54:32;;;;;;;39.05;21.05;;;;;;;12.60;76.83;100912.84;10470496;28;19928;-77
2022/10/31 02:59:38;;;;;;;39.90;21.70;;;;;;;12.55;77.47;100932.09;10474894;28;20102;-77
2022/10/31 03:05:09;;;;;;;42.92;19.45;;;;;;;12.64;77.53;100943.09;10461261;28;20045;-77
2022/10/31 03:10:20;;;;;;;35.88;19.58;;;;;;;12.61;77.35;100952.28;10471311;28;20052;-77
2022/10/31 03:15:28;;;;;;;38.17;20.38;;;;;;;12.67;77.47;100953.63;10472133;28;20089;-77
2022/10/31 03:20:38;;;;;;;32.30;19.83;;;;;;;12.83;77.68;100954.09;10471514;28;20092;-77
2022/10/31 03:25:43;;;;;;;37.88;20.45;;;;;;;12.86;77.42;100953.00;10471232;28;20053;-77
2022/10/31 03:30:49;;;;;;;35.10;19.90;;;;;;;12.94;78.05;100951.38;10470773;28;20107;-78
2022/10/31 03:35:58;;;;;;;34.00;19.23;;;;;;;13.03;77.77;100953.34;10471108;28;20052;-77
2022/10/31 03:41:04;;;;;;;37.47;20.92;;;;;;;13.04;77.32;100946.09;10457860;28;20045;-77
2022/10/31 03:46:07;;;;;;;34.58;18.95;;;;;;;12.75;76.67;100941.28;10482116;28;20564;-77
2022/10/31 03:51:18;;;;;;;31.35;17.15;;;;;;;12.60;76.61;100931.72;10469405;28;20047;-77
2022/10/31 03:56:30;;;;;;;29.77;17.45;;;;;;;12.42;76.79;100938.59;10450818;28;20044;-77
2022/10/31 04:01:38;;;;;;;27.73;18.50;;;;;;;12.28;76.89;100937.84;10495112;28;20049;-77
2022/10/31 04:06:46;;;;;;;34.78;17.55;;;;;;;12.13;77.35;100950.66;10452062;28;20044;-77
2022/10/31 04:11:52;;;;;;;31.05;17.02;;;;;;;12.06;77.42;100951.25;10494329;28;20048;-77
2022/10/31 04:17:19;;;;;;;32.50;17.63;;;;;;;12.02;77.65;100947.97;10475893;28;20071;-76
2022/10/31 04:22:23;;;;;;;32.03;16.90;;;;;;;12.08;77.55;100952.00;10480882;28;20056;-77
2022/10/31 04:27:28;;;;;;;30.77;17.35;;;;;;;12.01;77.63;100940.84;10480058;28;20448;-77
2022/10/31 04:32:31;;;;;;;32.63;18.48;;;;;;;11.99;77.73;100958.97;10483941;28;20454;-77
2022/10/31 04:37:35;;;;;;;27.70;16.13;;;;;;;11.91;77.48;100964.09;10480003;28;20057;-77
2022/10/31 04:42:38;;;;;;;26.70;16.52;;;;;;;11.88;77.82;100949.03;10474922;28;20093;-77
2022/10/31 04:47:42;;;;;;;32.88;17.98;;;;;;;11.80;77.83;100956.00;10478513;28;20437;-77
2022/10/31 04:52:47;;;;;;;36.67;17.42;;;;;;;11.72;77.99;100948.50;10472561;28;20075;-77
2022/10/31 04:57:53;;;;;;;30.15;16.67;;;;;;;11.69;77.99;100957.66;10464556;28;20075;-77
2022/10/31 05:02:58;;;;;;;28.65;15.90;;;;;;;11.59;78.21;100945.88;10475212;28;20099;-77
2022/10/31 05:08:04;;;;;;;33.88;18.52;;;;;;;11.52;78.29;100939.28;10478705;28;20425;-76
2022/10/31 05:13:08;;;;;;;30.63;18.95;;;;;;;11.49;78.31;100934.09;10471353;28;20452;-76
2022/10/31 05:18:29;;;;;;;32.92;18.17;;;;;;;11.45;78.33;100933.50;10467341;28;20119;-77
2022/10/31 05:23:52;;;;;;;34.33;20.02;;;;;;;11.45;79.11;100927.25;10470232;28;20045;-77
2022/10/31 05:28:57;;;;;;;35.60;19.95;;;;;;;11.39;79.46;100923.19;10472145;28;20051;-77
2022/10/31 05:34:00;;;;;;;;;;;;;;;11.46;79.51;100929.84;10483263;28;20060;-76
2022/10/31 05:39:23;;;;;;;34.97;19.15;;;;;;;11.46;79.54;100924.47;10465261;28;19963;-77
2022/10/31 05:44:30;;;;;;;41.22;21.52;;;;;;;11.44;79.81;100928.25;10480405;28;20051;-76
2022/10/31 05:49:51;;;;;;;48.55;23.80;;;;;;;11.40;80.17;100924.91;10469298;28;20127;-77
2022/10/31 05:55:14;;;;;;;52.55;22.67;;;;;;;11.33;80.42;100918.31;10478168;28;20514;-77
2022/10/31 06:00:34;;;;;;;44.25;22.95;;;;;;;11.28;80.59;100931.22;10477182;28;20045;-78
2022/10/31 06:05:42;;;;;;;39.33;21.45;;;;;;;11.24;80.33;100936.00;10483716;28;20071;-77
2022/10/31 06:10:46;;;;;;;40.65;22.02;;;;;;;11.24;80.29;100944.06;10471500;28;20045;-77
2022/10/31 06:15:53;;;;;;;32.42;18.80;;;;;;;11.22;79.86;100943.31;10463746;28;20040;-77
2022/10/31 06:21:01;;;;;;;29.45;17.40;;;;;;;11.22;79.49;100945.16;10473268;28;20055;-77
2022/10/31 06:26:06;;;;;;;37.55;20.23;;;;;;;11.18;78.84;100946.34;10458853;28;20144;-77
2022/10/31 06:31:09;;;;;;;34.42;19.58;;;;;;;11.15;78.77;100952.81;10468197;28;20036;-77
2022/10/31 06:36:12;;;;;;;35.35;18.75;;;;;;;11.12;78.09;100953.03;10472042;28;20069;-77
2022/10/31 06:41:16;;;;;;;30.75;15.48;;;;;;;11.08;79.40;100956.91;10480445;28;20775;-77
2022/10/31 06:46:23;;;;;;;20.10;10.90;;;;;;;11.35;79.63;100950.44;10467746;28;20063;-77
2022/10/31 06:51:55;;;;;;;20.95;11.18;;;;;;;11.49;78.56;100966.38;10419300;28;20529;-77
2022/10/31 06:56:59;;;;;;;23.13;11.10;;;;;;;11.65;77.60;100971.47;10465726;28;20045;-77
2022/10/31 07:02:03;;;;;;;22.63;11.75;;;;;;;11.85;76.86;100975.34;10462216;28;20139;-76
2022/10/31 07:07:08;;;;;;;21.73;13.98;;;;;;;12.22;76.13;100980.53;10451218;28;20520;-77
2022/10/31 07:12:14;;;;;;;31.48;16.02;;;;;;;12.38;74.85;100970.31;10485435;28;20036;-78
2022/10/31 07:17:24;;;;;;;33.92;17.45;;;;;;;12.44;74.16;100985.13;10473293;28;20049;-78
2022/10/31 07:22:34;;;;;;;43.25;20.20;;;;;;;12.53;74.27;100984.38;10468526;28;20098;-77
2022/10/31 07:27:43;;;;;;;32.60;20.50;;;;;;;12.63;73.76;100987.22;10469229;28;20570;-78
2022/10/31 07:32:49;;;;;;;40.47;21.20;;;;;;;12.73;73.85;100967.47;10471688;28;20037;-77
2022/10/31 07:37:54;;;;;;;39.65;21.60;;;;;;;12.72;73.97;100967.59;10443391;28;20566;-78
2022/10/31 07:42:59;;;;;;;39.38;21.42;;;;;;;12.85;74.21;100968.31;10480142;28;20041;-77
2022/10/31 07:48:24;;;;;;;43.15;22.70;;;;;;;13.30;73.74;100970.88;10472673;28;20098;-78
2022/10/31 07:53:46;;;;;;;44.13;22.95;;;;;;;13.80;72.56;100971.22;10465679;28;20049;-77
2022/10/31 07:58:59;;;;;;;42.37;21.77;;;;;;;14.50;69.98;100980.44;10489646;28;20052;-78
2022/10/31 08:04:02;;;;;;;39.13;20.92;;;;;;;14.71;69.88;100974.16;10466908;28;20056;-79
2022/10/31 08:09:23;;;;;;;40.83;20.38;;;;;;;15.04;68.55;100972.94;10453094;28;20469;-78
2022/10/31 08:14:30;;;;;;;37.78;20.55;;;;;;;15.07;68.51;100969.97;10475424;28;20094;-77
2022/10/31 08:19:33;;;;;;;48.53;22.85;;;;;;;15.21;69.02;100966.84;10435497;28;20041;-77
2022/10/31 08:24:36;;;;;;;35.13;21.08;;;;;;;15.50;67.70;100973.34;10461533;28;20074;-78
2022/10/31 08:29:45;;;;;;;38.47;23.05;;;;;;;15.66;67.66;100966.34;10496622;28;20049;-78
2022/10/31 08:34:48;;;;;;;40.95;22.40;;;;;;;15.74;67.89;100965.59;10451541;28;20123;-78
2022/10/31 08:40:11;;;;;;;37.28;20.75;;;;;;;15.68;67.11;100963.47;10443150;28;20049;-78
2022/10/31 08:45:16;;;;;;;35.38;21.13;;;;;;;15.33;67.88;100947.78;10436036;28;20083;-77
2022/10/31 08:50:19;;;;;;;40.10;22.10;;;;;;;15.17;68.97;100949.19;10455391;28;20033;-77
2022/10/31 08:55:23;;;;;;;40.00;21.85;;;;;;;14.91;69.61;100948.84;10465102;28;20494;-77
2022/10/31 09:00:51;;;;;;;42.97;24.10;;;;;;;14.80;70.58;100944.41;10462112;28;20189;-78
2022/10/31 09:05:57;;;;;;;40.90;23.98;;;;;;;14.97;70.75;100937.47;10489787;28;20048;-78
2022/10/31 09:11:00;;;;;;;46.25;23.85;;;;;;;15.27;69.82;100931.09;10468389;28;20056;-78
2022/10/31 09:16:27;;;;;;;44.60;24.58;;;;;;;15.76;67.49;100925.69;10478806;28;20051;-78
2022/10/31 09:21:30;;;;;;;42.60;23.90;;;;;;;16.19;67.04;100927.03;10474175;28;20048;-77
2022/10/31 09:26:34;;;;;;;45.85;23.83;;;;;;;16.62;64.88;100922.88;10462569;28;20040;-78
2022/10/31 09:31:49;;;;;;;44.38;24.70;;;;;;;16.41;65.53;100916.84;10470816;28;20073;-78
2022/10/31 09:37:03;;;;;;;44.55;22.45;;;;;;;16.52;65.35;100914.78;10472510;28;20051;-77
2022/10/31 09:42:28;;;;;;;48.38;23.77;;;;;;;16.40;65.49;100910.56;10482928;28;20044;-77
2022/10/31 09:47:41;;;;;;;;;;;;;;;16.42;66.05;100913.13;10455096;28;20075;-77
2022/10/31 09:53:22;;;;;;;40.55;23.27;;;;;;;16.39;66.13;100911.56;10438683;28;19990;-78
2022/10/31 09:58:27;;;;;;;46.20;23.67;;;;;;;16.45;66.84;100919.09;10471550;28;20052;-78
2022/10/31 10:03:36;;;;;;;53.10;26.80;;;;;;;16.63;66.46;100923.72;10473167;28;20501;-78
2022/10/31 10:09:00;;;;;;;44.90;24.95;;;;;;;16.79;66.25;100932.06;10473956;28;20064;-78
2022/10/31 10:14:32;;;;;;;41.28;24.00;;;;;;;17.18;64.58;100935.41;10466579;28;20040;-78
2022/10/31 10:19:56;;;;;;;42.28;24.70;;;;;;;17.12;64.41;100927.84;10456192;28;20052;-78
2022/10/31 10:25:14;;;;;;;40.67;23.88;;;;;;;17.46;63.97;100916.31;10474738;28;20120;-77
2022/10/31 10:30:21;;;;;;;44.45;24.63;;;;;;;17.94;62.84;100906.84;10481994;28;20045;-78
2022/10/31 10:35:31;;;;;;;42.78;22.50;;;;;;;18.73;60.18;100900.28;10550436;28;20059;-78
2022/10/31 10:40:34;;;;;;;31.10;20.40;;;;;;;19.22;58.61;100902.25;10507935;28;20048;-77
2022/10/31 10:51:02;;;;;;;30.83;18.10;;;;;;;20.36;54.65;100884.13;10473085;28;20045;-77
2022/10/31 10:56:15;;;;;;;28.35;17.52;;;;;;;20.70;54.12;100868.25;10474297;28;20060;-77
2022/10/31 11:01:18;;;;;;;32.53;18.38;;;;;;;20.50;55.11;100869.72;10461180;28;20136;-77
2022/10/31 11:06:25;;;;;;;25.70;16.20;;;;;;;20.99;53.69;100850.34;10474275;28;20524;-77
2022/10/31 11:11:31;;;;;;;31.17;16.15;;;;;;;21.20;53.75;100845.09;10475100;28;20052;-77
2022/10/31 11:16:37;;;;;;;26.38;15.13;;;;;;;21.67;52.35;100830.31;10468284;28;20045;-77
2022/10/31 11:21:45;;;;;;;25.95;15.40;;;;;;;22.65;49.36;100819.22;10451551;28;20052;-78
2022/10/31 11:27:14;;;;;;;31.10;15.38;;;;;;;22.19;49.30;100827.69;10444308;28;20038;-78
2022/10/31 11:32:21;;;;;;;34.40;16.95;;;;;;;20.13;54.15;100833.03;10472328;28;20069;-78
2022/10/31 11:37:27;;;;;;;29.70;16.63;;;;;;;19.67;56.17;100821.94;10450646;28;20044;-78
2022/10/31 11:42:37;;;;;;;29.35;16.42;;;;;;;19.56;56.58;100814.13;10468290;28;20072;-77
2022/10/31 11:47:43;;;;;;;30.05;16.98;;;;;;;19.76;56.56;100815.41;10480841;28;20115;-77
2022/10/31 11:52:48;;;;;;;33.65;15.93;;;;;;;19.73;56.36;100804.88;10466487;28;20051;-78
2022/10/31 11:57:54;;;;;;;29.50;16.05;;;;;;;18.98;58.22;100799.66;10475461;28;20072;-77
2022/10/31 12:03:14;;;;;;;30.95;16.13;;;;;;;18.68;59.75;100790.22;10474349;28;20087;-77
2022/10/31 12:08:19;;;;;;;27.10;14.85;;;;;;;18.52;60.21;100781.00;10501235;22;20087;-77
2022/10/31 12:13:37;;;;;;;32.05;15.60;;;;;;;18.46;60.48;100769.97;10470277;28;20067;-79
2022/10/31 12:18:58;;;;;;;24.60;13.32;;;;;;;18.41;60.52;100770.44;10480544;28;20048;-79
2022/10/31 12:24:19;;;;;;;22.50;12.85;;;;;;;18.66;59.92;100763.19;10481101;28;20051;-80
2022/10/31 12:29:35;;;;;;;26.00;13.23;;;;;;;18.94;58.73;100754.72;10477156;28;20040;-78
2022/10/31 12:35:01;;;;;;;26.75;13.10;;;;;;;19.48;57.68;100744.09;10462832;28;20414;-79
2022/10/31 12:40:22;;;;;;;20.77;13.55;;;;;;;19.60;57.17;100725.53;10468279;28;20041;-79
2022/10/31 12:45:37;;;;;;;22.88;12.52;;;;;;;19.75;56.99;100715.63;10470414;28;20055;-78
2022/10/31 12:50:52;;;;;;;20.63;12.60;;;;;;;20.02;56.24;100703.41;10455981;28;20117;-78
2022/10/31 12:56:08;;;;;;;21.65;11.70;;;;;;;20.18;55.94;100704.31;10454259;28;20045;-77
2022/10/31 13:01:17;;;;;;;23.08;11.73;;;;;;;20.27;55.65;100690.47;10457717;28;20065;-79
2022/10/31 13:06:23;;;;;;;15.70;10.70;;;;;;;20.52;55.04;100673.94;10462300;28;20045;-78
2022/10/31 13:11:31;;;;;;;18.95;10.68;;;;;;;19.92;56.07;100661.88;10473446;28;20060;-78
2022/10/31 13:16:38;;;;;;;18.83;11.25;;;;;;;19.18;58.08;100658.56;10466826;28;20040;-78
2022/10/31 13:21:47;;;;;;;20.27;11.55;;;;;;;18.88;58.75;100661.00;10474881;28;20135;-78
2022/10/31 13:26:54;;;;;;;20.20;11.35;;;;;;;18.67;59.70;100649.75;10469725;28;20079;-78
2022/10/31 13:31:57;;;;;;;17.42;9.88;;;;;;;18.60;60.39;100636.00;10483454;28;20048;-77
2022/10/31 13:37:07;;;;;;;16.00;10.57;;;;;;;18.73;60.19;100636.34;10476527;28;20812;-78
2022/10/31 13:42:19;;;;;;;16.45;10.23;;;;;;;19.10;59.67;100625.91;10474596;28;20537;-77
2022/10/31 13:47:25;;;;;;;23.38;10.63;;;;;;;19.24;58.69;100609.69;10450306;28;20064;-78
2022/10/31 13:52:29;;;;;;;17.02;10.85;;;;;;;19.24;58.43;100608.84;10436244;28;20047;-80
2022/10/31 13:57:42;;;;;;;16.17;10.05;;;;;;;19.21;58.67;100603.75;10425143;28;20052;-79
2022/10/31 14:02:48;;;;;;;18.98;10.77;;;;;;;19.03;59.72;100593.06;10442425;28;20059;-79
2022/10/31 14:07:53;;;;;;;22.35;10.65;;;;;;;19.10;59.44;100588.63;10448630;28;20048;-79
2022/10/31 14:13:06;;;;;;;18.35;10.45;;;;;;;19.04;59.72;100586.63;10443531;28;20056;-78
2022/10/31 14:18:23;;;;;;;19.20;11.05;;;;;;;18.98;59.79;100587.34;10442174;28;20558;-78
2022/10/31 14:23:37;;;;;;;19.63;10.95;;;;;;;18.75;60.58;100577.13;10447798;28;20040;-78
2022/10/31 14:28:41;;;;;;;20.40;11.00;;;;;;;18.61;61.22;100556.06;10436685;28;20045;-79
2022/10/31 14:33:45;;;;;;;19.70;10.75;;;;;;;18.40;62.06;100559.31;10442191;28;20051;-78
2022/10/31 14:38:58;;;;;;;19.35;11.35;;;;;;;18.16;62.57;100543.03;10452504;28;20052;-79
2022/10/31 14:44:39;;;;;;;19.27;10.75;;;;;;;17.89;63.59;100537.72;10434552;28;20131;-78
2022/10/31 14:50:08;;;;;;;17.70;10.85;;;;;;;17.68;64.39;100530.03;10408597;28;20040;-79
2022/10/31 14:55:14;;;;;;;17.67;10.18;;;;;;;17.52;64.94;100521.03;10398546;28;20061;-78
2022/10/31 15:00:19;;;;;;;18.23;10.15;;;;;;;17.42;65.38;100529.34;10391258;28;20052;-78
2022/10/31 15:05:24;;;;;;;20.25;11.05;;;;;;;17.30;65.81;100511.63;10389128;28;20065;-78
2022/10/31 15:10:31;;;;;;;18.00;10.60;;;;;;;17.17;66.01;100501.25;10395771;28;20048;-78
2022/10/31 15:15:35;;;;;;;19.00;9.90;;;;;;;16.98;66.93;100505.91;10394251;28;20049;-78
2022/10/31 15:20:45;;;;;;;24.40;10.00;;;;;;;16.94;67.26;100509.09;10400855;28;20052;-77
2022/10/31 15:25:48;;;;;;;16.35;8.98;;;;;;;16.87;66.99;100495.34;10388452;28;20159;-78
2022/10/31 15:30:52;;;;;;;14.57;9.52;;;;;;;16.86;66.90;100485.47;10390276;28;20118;-78
2022/10/31 15:35:58;;;;;;;20.27;9.80;;;;;;;16.77;67.32;100472.91;10394484;28;21125;-78
2022/10/31 15:41:04;;;;;;;23.50;10.80;;;;;;;16.65;68.38;100466.94;10458558;28;20047;-78
2022/10/31 15:46:10;;;;;;;26.58;11.30;;;;;;;16.59;68.84;100465.72;10485148;28;20047;-79
2022/10/31 15:51:14;;;;;;;26.92;12.15;;;;;;;16.46;69.83;100456.31;10454399;28;20608;-78
2022/10/31 15:56:22;;;;;;;23.35;11.48;;;;;;;16.38;70.36;100443.56;10482218;28;20044;-78
2022/10/31 16:01:27;;;;;;;24.85;11.77;;;;;;;16.33;70.62;100449.47;10491270;28;20493;-79
2022/10/31 16:06:33;;;;;;;23.33;12.15;;;;;;;16.17;71.42;100443.06;10470865;28;20068;-78
2022/10/31 16:11:38;;;;;;;22.10;12.40;;;;;;;16.19;71.58;100436.47;10486335;28;20052;-78
2022/10/31 16:16:44;;;;;;;19.10;11.13;;;;;;;16.06;71.33;100441.47;10492719;28;20141;-78
2022/10/31 16:21:50;;;;;;;16.70;9.88;;;;;;;16.00;71.32;100451.06;10480887;28;20059;-78
2022/10/31 16:26:58;;;;;;;16.70;10.45;;;;;;;15.97;71.46;100451.41;10489208;28;20106;-78
2022/10/31 16:32:01;;;;;;;16.90;10.25;;;;;;;15.90;71.26;100445.75;10457662;28;20052;-78
2022/10/31 16:37:05;;;;;;;14.18;9.32;;;;;;;15.89;71.60;100438.63;10476499;28;20596;-77
2022/10/31 16:42:10;;;;;;;15.68;9.02;;;;;;;15.76;71.92;100442.75;10503433;28;20040;-77
2022/10/31 16:47:14;;;;;;;14.48;9.23;;;;;;;15.83;71.25;100441.13;10484395;28;20063;-78
2022/10/31 16:52:19;;;;;;;13.50;9.20;;;;;;;15.82;71.37;100452.94;10481781;28;20043;-78
2022/10/31 16:57:28;;;;;;;17.20;11.05;;;;;;;15.76;71.54;100446.31;10494609;28;20117;-78
2022/10/31 17:02:31;;;;;;;20.70;12.18;;;;;;;15.78;71.71;100449.72;10468044;28;20054;-79
2022/10/31 17:07:35;;;;;;;18.55;10.65;;;;;;;15.81;71.09;100460.22;10486175;28;20098;-77
2022/10/31 17:12:41;;;;;;;17.65;11.82;;;;;;;15.78;71.64;100454.28;10446911;28;20055;-76
2022/10/31 17:17:44;;;;;;;19.58;11.45;;;;;;;15.66;72.11;100453.66;10470271;28;20052;-76
2022/10/31 17:22:49;;;;;;;16.55;10.63;;;;;;;15.63;72.28;100435.03;10475651;28;20045;-77
2022/10/31 17:27:52;;;;;;;22.13;11.70;;;;;;;15.52;72.76;100413.59;10473439;28;20131;-77
2022/10/31 17:32:55;;;;;;;19.88;11.95;;;;;;;15.45;72.80;100407.97;10476811;28;20053;-77
2022/10/31 17:37:59;;;;;;;25.08;13.23;;;;;;;15.31;73.11;100406.63;10478623;28;20093;-77
2022/10/31 17:43:02;;;;;;;20.23;13.02;;;;;;;15.37;73.04;100418.72;10445351;28;20118;-77
2022/10/31 17:48:06;;;;;;;23.80;12.82;;;;;;;15.38;72.63;100415.84;10457292;28;20048;-76
2022/10/31 17:53:10;;;;;;;30.63;15.02;;;;;;;15.17;73.10;100402.63;10477780;28;20047;-77
2022/10/31 17:58:14;;;;;;;24.67;14.25;;;;;;;15.20;73.38;100401.47;10469027;28;20162;-77
2022/10/31 18:03:16;;;;;;;35.47;17.20;;;;;;;15.13;73.47;100393.09;10452809;28;20044;-77
2022/10/31 18:08:25;;;;;;;28.95;15.45;;;;;;;15.11;73.48;100384.31;10467903;28;20052;-76
2022/10/31 18:13:28;;;;;;;30.10;16.52;;;;;;;15.03;73.69;100368.84;10487647;28;20084;-77
2022/10/31 18:18:31;;;;;;;29.67;15.60;;;;;;;15.01;73.80;100360.00;10478947;28;20048;-77
2022/10/31 18:23:35;;;;;;;30.58;16.77;;;;;;;14.99;73.46;100353.06;10457049;28;20063;-77
2022/10/31 18:28:38;;;;;;;29.35;17.10;;;;;;;14.84;74.29;100350.03;10467312;28;20517;-77
2022/10/31 18:33:41;;;;;;;31.10;16.95;;;;;;;14.89;74.01;100339.63;10485617;28;20052;-78
2022/10/31 18:38:45;;;;;;;33.90;15.70;;;;;;;14.79;73.80;100336.13;10471196;28;20044;-77
2022/10/31 18:43:48;;;;;;;29.27;17.38;;;;;;;14.62;74.78;100332.41;10460286;28;20060;-77
2022/10/31 18:48:51;;;;;;;38.22;17.38;;;;;;;14.67;74.69;100315.69;10466850;28;20044;-76
2022/10/31 18:53:58;;;;;;;31.92;17.80;;;;;;;14.59;74.57;100320.03;10474300;28;20052;-76
2022/10/31 18:59:02;;;;;;;48.58;20.30;;;;;;;14.46;75.35;100294.38;10481267;28;20067;-76
2022/10/31 19:04:05;;;;;;;28.40;17.35;;;;;;;14.43;75.07;100282.00;10475295;28;20132;-76
2022/10/31 19:09:09;;;;;;;31.58;18.25;;;;;;;14.45;74.97;100292.66;10484538;28;20408;-77
2022/10/31 19:14:13;;;;;;;40.50;18.75;;;;;;;14.43;75.12;100300.09;10481683;28;20221;-76
2022/10/31 19:19:17;;;;;;;28.27;17.00;;;;;;;14.42;74.88;100284.84;10474723;28;20512;-78
2022/10/31 19:24:22;;;;;;;36.63;18.95;;;;;;;14.42;74.79;100283.00;10480046;28;20048;-78
2022/10/31 19:29:25;;;;;;;33.60;18.27;;;;;;;14.40;75.23;100279.63;10478476;28;20051;-77
2022/10/31 19:34:27;;;;;;;35.45;19.25;;;;;;;14.54;74.80;100286.34;10485755;28;20090;-76
2022/10/31 19:39:32;;;;;;;29.75;17.67;;;;;;;14.65;74.07;100277.19;10483718;28;20070;-76
2022/10/31 19:44:34;;;;;;;32.28;16.92;;;;;;;14.60;74.58;100267.66;10489165;28;20074;-78
2022/10/31 19:49:37;;;;;;;36.38;17.60;;;;;;;14.66;73.93;100263.50;10472178;28;20479;-76
2022/10/31 19:54:41;;;;;;;34.22;16.83;;;;;;;14.50;74.40;100260.63;10483291;28;20512;-76
2022/10/31 19:59:44;;;;;;;31.80;16.40;;;;;;;14.65;73.92;100264.50;10480585;28;20176;-77
2022/10/31 20:04:47;;;;;;;36.70;16.48;;;;;;;14.70;73.50;100258.63;10467319;28;20071;-77
2022/10/31 20:09:51;;;;;;;26.55;15.68;;;;;;;14.64;73.99;100257.38;10467915;28;20425;-76
2022/10/31 20:14:54;;;;;;;31.08;15.90;;;;;;;14.57;73.81;100256.31;10460036;28;20702;-77
2022/10/31 20:19:57;;;;;;;31.77;15.18;;;;;;;14.63;73.93;100244.88;10465647;28;20052;-77
2022/10/31 20:25:02;;;;;;;25.02;16.00;;;;;;;14.70;73.38;100243.28;10463879;28;20049;-77
2022/10/31 20:30:06;;;;;;;27.77;15.05;;;;;;;14.67;73.27;100258.94;10463427;28;20052;-78
2022/10/31 20:35:10;;;;;;;28.77;15.38;;;;;;;14.74;72.97;100241.94;10506031;28;20059;-77
2022/10/31 20:40:14;;;;;;;27.63;14.48;;;;;;;14.65;73.33;100236.63;10494997;28;20048;-78
2022/10/31 20:45:17;;;;;;;26.88;14.15;;;;;;;14.59;72.96;100238.94;10489246;28;20064;-77
2022/10/31 20:50:20;;;;;;;25.25;13.45;;;;;;;14.54;73.04;100243.97;10490560;28;20087;-77
2022/10/31 20:55:24;;;;;;;28.95;14.32;;;;;;;14.46;73.25;100234.91;10467951;28;20048;-76
2022/10/31 21:00:27;;;;;;;20.67;12.10;;;;;;;14.50;72.98;100222.78;10444430;28;20135;-77
2022/10/31 21:05:30;;;;;;;24.48;12.18;;;;;;;14.53;72.43;100223.31;10468529;28;20052;-77
2022/10/31 21:10:34;;;;;;;21.83;12.35;;;;;;;14.50;72.69;100230.91;10467345;28;20095;-77
2022/10/31 21:15:37;;;;;;;28.50;13.70;;;;;;;14.50;72.76;100229.03;10446700;28;20052;-77
2022/10/31 21:20:42;;;;;;;27.33;13.23;;;;;;;14.52;72.46;100237.00;10479001;28;20729;-76
2022/10/31 21:25:46;;;;;;;23.40;13.13;;;;;;;14.49;72.47;100242.72;10435010;28;20040;-75
2022/10/31 21:30:51;;;;;;;25.20;12.25;;;;;;;14.45;72.48;100252.97;10434900;28;20055;-77
2022/10/31 21:35:54;;;;;;;23.08;11.82;;;;;;;14.46;72.72;100253.84;10467359;28;20052;-77
2022/10/31 21:41:02;;;;;;;19.83;12.10;;;;;;;14.42;72.35;100252.44;10467908;28;20552;-77
2022/10/31 21:46:06;;;;;;;27.05;11.52;;;;;;;14.34;72.69;100240.53;10475103;28;20443;-76
2022/10/31 21:51:11;;;;;;;23.17;11.85;;;;;;;14.25;72.42;100229.75;10448544;28;20048;-77
2022/10/31 21:56:15;;;;;;;22.45;11.95;;;;;;;14.13;72.63;100226.44;10460490;28;20052;-77
2022/10/31 22:01:18;;;;;;;26.73;11.52;;;;;;;14.02;72.80;100223.94;10480183;28;21195;-77
2022/10/31 22:06:22;;;;;;;24.73;11.23;;;;;;;14.09;72.50;100233.13;10475689;28;21054;-77
2022/10/31 22:11:27;;;;;;;21.58;10.45;;;;;;;14.07;72.89;100213.50;10480176;28;20516;-76
2022/10/31 22:16:33;;;;;;;16.65;10.60;;;;;;;14.02;72.84;100219.38;10479823;28;20055;-77
2022/10/31 22:21:38;;;;;;;23.27;11.13;;;;;;;13.91;72.95;100206.09;10490335;28;20050;-77
2022/10/31 22:26:42;;;;;;;17.15;10.80;;;;;;;13.94;72.98;100197.69;10477881;28;20498;-76
2022/10/31 22:31:47;;;;;;;19.80;11.85;;;;;;;13.88;72.90;100191.03;10472534;28;20076;-77
2022/10/31 22:36:55;;;;;;;23.85;12.75;;;;;;;13.84;73.09;100186.06;10460631;28;20047;-78
2022/10/31 22:41:59;;;;;;;26.75;11.60;;;;;;;13.74;73.36;100160.97;10482615;28;20070;-76
2022/10/31 22:47:02;;;;;;;23.92;11.43;;;;;;;13.54;73.96;100154.81;10473343;28;20051;-76
2022/10/31 22:52:05;;;;;;;22.83;11.60;;;;;;;13.69;73.48;100138.00;10454421;28;20063;-77
2022/10/31 22:57:09;;;;;;;23.10;12.20;;;;;;;13.56;73.76;100110.50;10470899;28;20532;-77
2022/10/31 23:02:11;;;;;;;19.33;12.50;;;;;;;13.54;74.20;100122.44;10480733;28;20050;-76
2022/10/31 23:07:14;;;;;;;22.20;12.73;;;;;;;13.35;74.62;100126.91;10464800;28;20135;-76